createdAt,value
2019-06-27T00:01:01.822Z,19.40
2019-06-27T00:03:30.714Z,19.30
2019-06-27T00:05:59.616Z,19.30
2019-06-27T00:08:28.577Z,19.30
2019-06-27T00:10:57.452Z,19.20
2019-06-27T00:13:26.250Z,19.10
2019-06-27T00:15:55.051Z,19.10
2019-06-27T00:18:23.902Z,19.00
2019-06-27T00:20:54.427Z,19.00
2019-06-27T00:23:23.318Z,18.90
2019-06-27T00:25:52.136Z,18.90
2019-06-27T00:28:20.914Z,18.80
2019-06-27T00:30:49.716Z,18.80
2019-06-27T00:33:18.522Z,18.70
2019-06-27T00:35:47.330Z,18.70
2019-06-27T00:38:16.138Z,18.60
2019-06-27T00:40:44.922Z,18.60
2019-06-27T00:43:13.734Z,18.60
2019-06-27T00:45:42.646Z,18.60
2019-06-27T00:48:11.625Z,18.60
2019-06-27T00:50:40.498Z,18.60
2019-06-27T00:53:09.458Z,18.70
2019-06-27T00:55:38.348Z,18.70
2019-06-27T00:58:07.262Z,18.70
2019-06-27T01:00:36.131Z,18.70
2019-06-27T01:03:05.362Z,18.70
2019-06-27T01:05:34.244Z,18.70
2019-06-27T01:08:03.120Z,18.70
2019-06-27T01:10:32.057Z,18.80
2019-06-27T01:13:01.234Z,18.70
2019-06-27T01:15:30.186Z,18.60
2019-06-27T01:17:59.010Z,18.60
2019-06-27T01:20:27.907Z,18.60
2019-06-27T01:22:56.787Z,18.60
2019-06-27T01:25:25.654Z,18.60
2019-06-27T01:27:54.558Z,18.60
2019-06-27T01:30:23.866Z,18.70
2019-06-27T01:32:52.778Z,18.60
2019-06-27T01:35:21.720Z,18.60
2019-06-27T01:37:50.717Z,18.40
2019-06-27T01:40:20.454Z,18.30
2019-06-27T01:42:49.329Z,18.20
2019-06-27T01:45:27.072Z,18.10
2019-06-27T01:47:56.082Z,18.00
2019-06-27T01:50:25.323Z,18.00
2019-06-27T01:52:54.195Z,17.90
2019-06-27T01:55:23.143Z,17.80
2019-06-27T01:57:52.010Z,17.80
2019-06-27T02:00:21.472Z,17.70
2019-06-27T02:02:50.335Z,17.70
2019-06-27T02:05:19.230Z,17.60
2019-06-27T02:07:48.199Z,17.60
2019-06-27T02:10:17.388Z,17.50
2019-06-27T02:12:46.300Z,17.40
2019-06-27T02:15:17.067Z,17.30
2019-06-27T02:17:45.920Z,17.30
2019-06-27T02:20:15.404Z,17.20
2019-06-27T02:22:44.240Z,17.10
2019-06-27T02:25:13.521Z,17.10
2019-06-27T02:27:42.377Z,17.00
2019-06-27T02:30:12.023Z,17.00
2019-06-27T02:32:40.819Z,17.00
2019-06-27T02:35:10.274Z,16.90
2019-06-27T02:37:39.166Z,16.80
2019-06-27T02:40:09.432Z,16.80
2019-06-27T02:42:38.323Z,16.70
2019-06-27T02:45:07.623Z,16.60
2019-06-27T02:47:36.518Z,16.50
2019-06-27T02:50:05.524Z,16.40
2019-06-27T02:52:34.407Z,16.40
2019-06-27T02:55:03.342Z,16.30
2019-06-27T02:57:32.202Z,16.30
2019-06-27T03:00:01.020Z,16.20
2019-06-27T03:02:29.866Z,16.20
2019-06-27T03:04:58.662Z,16.10
2019-06-27T03:07:27.518Z,16.10
2019-06-27T03:09:56.390Z,16.10
2019-06-27T03:12:25.280Z,16.00
2019-06-27T03:14:54.450Z,16.00
2019-06-27T03:17:23.302Z,15.90
2019-06-27T03:19:52.124Z,15.90
2019-06-27T03:22:20.898Z,15.90
2019-06-27T03:24:49.776Z,15.90
2019-06-27T03:27:18.878Z,15.80
2019-06-27T03:29:47.750Z,15.80
2019-06-27T03:32:16.553Z,15.80
2019-06-27T03:34:45.740Z,15.80
2019-06-27T03:37:14.631Z,15.80
2019-06-27T03:39:43.517Z,15.70
2019-06-27T03:42:12.315Z,15.70
2019-06-27T03:44:41.331Z,15.70
2019-06-27T03:47:10.126Z,15.70
2019-06-27T03:49:38.933Z,15.70
2019-06-27T03:52:07.814Z,15.70
2019-06-27T03:54:37.315Z,15.70
2019-06-27T03:57:06.203Z,15.70
2019-06-27T03:59:35.052Z,15.80
2019-06-27T04:02:03.999Z,15.80
2019-06-27T04:04:33.028Z,15.90
2019-06-27T04:07:01.897Z,15.90
2019-06-27T04:09:30.786Z,15.90
2019-06-27T04:11:59.714Z,16.00
2019-06-27T04:14:28.571Z,16.10
2019-06-27T04:16:57.374Z,16.20
2019-06-27T04:19:26.260Z,16.30
2019-06-27T04:21:55.139Z,16.40
2019-06-27T04:24:23.936Z,16.50
2019-06-27T04:26:52.810Z,16.60
2019-06-27T04:29:33.550Z,16.70
2019-06-27T04:31:52.235Z,16.80
2019-06-27T04:34:21.095Z,16.90
2019-06-27T04:36:49.914Z,16.90
2019-06-27T04:39:18.772Z,16.90
2019-06-27T04:41:47.581Z,17.00
2019-06-27T04:44:16.357Z,17.10
2019-06-27T04:46:45.223Z,17.20
2019-06-27T04:49:14.153Z,17.30
2019-06-27T04:51:43.025Z,17.30
2019-06-27T04:54:11.817Z,17.40
2019-06-27T04:56:40.631Z,17.60
2019-06-27T04:59:09.470Z,17.80
2019-06-27T05:01:38.438Z,17.90
2019-06-27T05:04:07.234Z,18.20
2019-06-27T05:06:36.103Z,18.90
2019-06-27T05:09:05.302Z,19.80
2019-06-27T05:11:34.179Z,20.80
2019-06-27T05:14:02.972Z,21.80
2019-06-27T05:16:31.758Z,22.60
2019-06-27T05:19:01.038Z,23.10
2019-06-27T05:21:29.826Z,23.70
2019-06-27T05:23:58.602Z,24.00
2019-06-27T05:26:27.478Z,24.50
2019-06-27T05:28:56.250Z,25.00
2019-06-27T05:31:25.114Z,25.30
2019-06-27T05:33:53.910Z,26.00
2019-06-27T05:36:22.677Z,26.50
2019-06-27T05:38:51.830Z,27.00
2019-06-27T05:41:20.962Z,27.70
2019-06-27T05:43:49.818Z,28.00
2019-06-27T05:46:18.665Z,27.60
2019-06-27T05:48:47.870Z,27.40
2019-06-27T05:51:16.652Z,27.00
2019-06-27T05:53:45.809Z,26.70
2019-06-27T05:56:15.125Z,26.90
2019-06-27T05:58:43.933Z,27.60
2019-06-27T06:01:13.030Z,28.60
2019-06-27T06:03:41.878Z,29.50
2019-06-27T06:06:10.715Z,30.20
2019-06-27T06:08:39.517Z,29.90
2019-06-27T06:11:08.310Z,29.60
2019-06-27T06:13:37.175Z,30.30
2019-06-27T06:16:06.127Z,30.20
2019-06-27T06:18:34.909Z,29.70
2019-06-27T06:21:03.780Z,29.20
2019-06-27T06:23:32.614Z,28.70
2019-06-27T06:26:01.444Z,28.90
2019-06-27T06:28:30.722Z,29.60
2019-06-27T06:30:59.585Z,29.70
2019-06-27T06:33:28.426Z,29.10
2019-06-27T06:35:57.270Z,28.50
2019-06-27T06:38:26.182Z,29.60
2019-06-27T06:40:55.350Z,31.80
2019-06-27T06:43:25.054Z,33.50
2019-06-27T06:45:53.825Z,35.10
2019-06-27T06:48:22.627Z,36.50
2019-06-27T06:50:51.394Z,37.50
2019-06-27T06:53:20.184Z,38.20
2019-06-27T06:55:48.957Z,39.10
2019-06-27T06:58:17.826Z,40.00
2019-06-27T07:01:00.302Z,40.60
2019-06-27T07:03:17.971Z,41.50
2019-06-27T07:05:47.149Z,42.40
2019-06-27T07:08:15.937Z,42.30
2019-06-27T07:10:44.809Z,42.70
2019-06-27T07:13:13.613Z,43.50
2019-06-27T07:15:42.689Z,43.80
2019-06-27T07:18:11.473Z,44.50
2019-06-27T07:20:40.297Z,44.60
2019-06-27T07:23:09.209Z,45.40
2019-06-27T07:25:38.098Z,45.70
2019-06-27T07:28:06.866Z,46.00
2019-06-27T07:30:35.781Z,46.20
2019-06-27T07:33:04.654Z,46.70
2019-06-27T07:35:33.521Z,47.10
2019-06-27T07:38:02.281Z,46.90
2019-06-27T07:40:31.066Z,47.40
2019-06-27T07:42:59.833Z,47.90
2019-06-27T07:45:28.621Z,49.00
2019-06-27T07:47:57.414Z,48.80
2019-06-27T07:50:26.236Z,48.10
2019-06-27T07:52:55.129Z,47.90
2019-06-27T07:55:24.514Z,48.00
2019-06-27T07:57:53.289Z,48.10
2019-06-27T08:00:23.429Z,48.80
2019-06-27T08:02:52.561Z,49.80
2019-06-27T08:05:21.539Z,49.40
2019-06-27T08:07:50.460Z,49.80
2019-06-27T08:10:19.649Z,49.10
2019-06-27T08:12:48.418Z,49.70
2019-06-27T08:15:17.459Z,49.90
2019-06-27T08:17:46.241Z,50.30
2019-06-27T08:20:15.164Z,50.80
2019-06-27T08:22:44.009Z,51.20
2019-06-27T08:25:12.865Z,51.60
2019-06-27T08:27:41.646Z,51.40
2019-06-27T08:30:11.503Z,52.40
2019-06-27T08:32:40.276Z,52.90
2019-06-27T08:35:09.305Z,53.00
2019-06-27T08:37:38.175Z,53.50
2019-06-27T08:40:07.695Z,53.80
2019-06-27T08:42:36.539Z,54.30
2019-06-27T08:45:05.628Z,55.00
2019-06-27T08:47:34.497Z,55.90
2019-06-27T08:50:03.559Z,56.40
2019-06-27T08:52:32.415Z,55.70
2019-06-27T08:55:01.293Z,55.90
2019-06-27T08:57:30.070Z,56.30
2019-06-27T08:59:58.866Z,56.60
2019-06-27T09:02:27.770Z,56.10
2019-06-27T09:04:56.597Z,55.20
2019-06-27T09:07:25.485Z,54.90
2019-06-27T09:09:54.290Z,55.20
2019-06-27T09:12:23.062Z,54.40
2019-06-27T09:14:51.850Z,55.30
2019-06-27T09:17:20.617Z,55.70
2019-06-27T09:19:49.401Z,55.20
2019-06-27T09:22:18.250Z,55.20
2019-06-27T09:24:47.101Z,56.00
2019-06-27T09:27:15.962Z,56.80
2019-06-27T09:29:45.037Z,57.50
2019-06-27T09:32:24.916Z,57.10
2019-06-27T09:34:44.469Z,56.70
2019-06-27T09:37:13.321Z,57.50
2019-06-27T09:39:42.093Z,58.50
2019-06-27T09:42:10.952Z,59.60
2019-06-27T09:44:42.142Z,59.40
2019-06-27T09:47:10.349Z,59.80
2019-06-27T09:49:39.362Z,60.10
2019-06-27T09:52:08.457Z,60.40
2019-06-27T09:54:37.293Z,59.70
2019-06-27T09:57:06.161Z,59.80
2019-06-27T09:59:34.938Z,60.10
2019-06-27T10:02:03.954Z,58.10
2019-06-27T10:04:32.727Z,58.70
2019-06-27T10:07:01.592Z,59.60
2019-06-27T10:09:30.517Z,59.70
2019-06-27T10:11:59.358Z,60.00
2019-06-27T10:14:28.148Z,59.90
2019-06-27T10:16:58.756Z,59.50
2019-06-27T10:19:27.676Z,60.40
2019-06-27T10:21:56.468Z,60.60
2019-06-27T10:24:25.259Z,60.70
2019-06-27T10:26:54.042Z,60.60
2019-06-27T10:29:22.921Z,60.90
2019-06-27T10:31:51.769Z,61.00
2019-06-27T10:34:20.550Z,60.80
2019-06-27T10:36:49.484Z,61.40
2019-06-27T10:39:18.574Z,61.50
2019-06-27T10:41:47.337Z,61.30
2019-06-27T10:44:16.125Z,61.30
2019-06-27T10:46:44.974Z,61.90
2019-06-27T10:49:13.766Z,62.20
2019-06-27T10:51:42.899Z,62.50
2019-06-27T10:54:11.704Z,62.70
2019-06-27T10:56:40.473Z,62.90
2019-06-27T10:59:09.326Z,63.00
2019-06-27T11:01:38.089Z,62.80
2019-06-27T11:04:07.027Z,62.10
2019-06-27T11:06:35.806Z,62.50
2019-06-27T11:09:05.532Z,62.60
2019-06-27T11:11:34.446Z,61.30
2019-06-27T11:14:03.301Z,61.80
2019-06-27T11:16:32.086Z,62.20
2019-06-27T11:19:00.873Z,62.00
2019-06-27T11:21:29.719Z,62.10
2019-06-27T11:23:58.498Z,62.00
2019-06-27T11:26:46.714Z,62.20
2019-06-27T11:29:15.926Z,62.10
2019-06-27T11:31:46.386Z,61.90
2019-06-27T11:34:18.471Z,61.10
2019-06-27T11:36:46.804Z,59.90
2019-06-27T11:39:15.719Z,59.20
2019-06-27T11:41:44.805Z,58.40
2019-06-27T11:44:13.713Z,58.20
2019-06-27T11:46:42.554Z,58.90
2019-06-27T11:49:11.376Z,59.40
2019-06-27T11:51:40.234Z,60.30
2019-06-27T11:54:09.034Z,60.60
2019-06-27T11:56:37.805Z,60.10
2019-06-27T11:59:06.613Z,59.40
2019-06-27T12:01:35.878Z,59.00
2019-06-27T12:04:04.802Z,59.00
2019-06-27T12:06:36.386Z,58.50
2019-06-27T12:09:06.037Z,57.30
2019-06-27T12:11:35.147Z,56.70
2019-06-27T12:14:03.928Z,56.10
2019-06-27T12:16:32.722Z,56.40
2019-06-27T12:19:01.488Z,57.00
2019-06-27T12:21:30.292Z,57.20
2019-06-27T12:23:59.080Z,57.20
2019-06-27T12:26:28.039Z,57.30
2019-06-27T12:28:56.843Z,56.80
2019-06-27T12:31:25.809Z,55.20
2019-06-27T12:34:06.050Z,53.30
2019-06-27T12:36:25.380Z,50.80
2019-06-27T12:38:54.554Z,48.90
2019-06-27T12:41:23.481Z,46.70
2019-06-27T12:43:52.273Z,45.30
2019-06-27T12:46:21.057Z,44.00
2019-06-27T12:48:49.901Z,43.20
2019-06-27T12:51:18.758Z,42.20
2019-06-27T12:53:47.543Z,41.50
2019-06-27T12:56:16.403Z,40.70
2019-06-27T12:58:45.295Z,39.90
2019-06-27T13:01:14.342Z,39.30
2019-06-27T13:03:43.130Z,38.60
2019-06-27T13:06:11.948Z,38.20
2019-06-27T13:08:40.810Z,37.50
2019-06-27T13:11:09.671Z,36.80
2019-06-27T13:13:38.537Z,36.10
2019-06-27T13:16:07.661Z,35.20
2019-06-27T13:18:36.451Z,34.70
2019-06-27T13:21:05.381Z,34.30
2019-06-27T13:23:34.174Z,34.20
2019-06-27T13:26:02.967Z,34.00
2019-06-27T13:28:31.770Z,33.90
2019-06-27T13:31:00.556Z,33.30
2019-06-27T13:33:29.427Z,33.20
2019-06-27T13:35:58.261Z,33.00
2019-06-27T13:38:27.145Z,32.50
2019-06-27T13:40:55.934Z,32.30
2019-06-27T13:43:24.722Z,32.20
2019-06-27T13:45:53.611Z,32.00
2019-06-27T13:48:22.420Z,31.80
2019-06-27T13:50:51.301Z,31.80
2019-06-27T13:53:20.085Z,31.60
2019-06-27T13:55:48.877Z,31.50
2019-06-27T13:58:17.682Z,31.10
2019-06-27T14:00:46.926Z,31.00
2019-06-27T14:03:15.815Z,31.00
2019-06-27T14:05:44.674Z,31.10
2019-06-27T14:08:13.462Z,31.10
2019-06-27T14:10:42.361Z,31.00
2019-06-27T14:13:11.217Z,31.00
2019-06-27T14:15:40.157Z,31.00
2019-06-27T14:18:09.107Z,31.10
2019-06-27T14:20:37.897Z,31.10
2019-06-27T14:23:06.794Z,31.10
2019-06-27T14:25:35.549Z,31.10
2019-06-27T14:28:04.854Z,30.90
2019-06-27T14:30:34.044Z,30.80
2019-06-27T14:33:02.829Z,30.70
2019-06-27T14:35:31.610Z,30.50
2019-06-27T14:38:00.475Z,30.30
2019-06-27T14:40:29.809Z,30.10
2019-06-27T14:42:58.648Z,30.00
2019-06-27T14:45:27.634Z,29.90
2019-06-27T14:47:56.474Z,29.90
2019-06-27T14:50:25.257Z,29.80
2019-06-27T14:52:54.209Z,29.80
2019-06-27T14:55:23.337Z,29.80
2019-06-27T14:57:52.493Z,29.70
2019-06-27T15:00:21.896Z,29.60
2019-06-27T15:02:50.733Z,29.50
2019-06-27T15:05:31.762Z,29.40
2019-06-27T15:07:50.544Z,29.40
2019-06-27T15:10:19.852Z,29.30
2019-06-27T15:12:56.848Z,29.10
2019-06-27T15:15:19.369Z,29.00
2019-06-27T15:17:48.349Z,28.90
2019-06-27T15:20:17.618Z,28.80
2019-06-27T15:22:46.893Z,28.80
2019-06-27T15:25:16.613Z,28.80
2019-06-27T15:27:45.400Z,28.80
2019-06-27T15:30:14.630Z,28.80
2019-06-27T15:32:43.444Z,28.80
2019-06-27T15:35:12.811Z,28.80
2019-06-27T15:37:41.623Z,28.80
2019-06-27T15:40:10.802Z,28.70
2019-06-27T15:42:39.811Z,28.60
2019-06-27T15:45:09.382Z,28.50
2019-06-27T15:47:38.251Z,28.40
2019-06-27T15:50:07.198Z,28.30
2019-06-27T15:52:36.052Z,28.20
2019-06-27T15:55:05.565Z,28.10
2019-06-27T15:57:34.761Z,28.10
2019-06-27T16:00:03.759Z,28.10
2019-06-27T16:02:32.546Z,28.10
2019-06-27T16:05:01.335Z,28.00
2019-06-27T16:07:30.118Z,27.90
2019-06-27T16:09:58.975Z,27.90
2019-06-27T16:12:27.745Z,27.80
2019-06-27T16:14:56.626Z,27.80
2019-06-27T16:17:25.390Z,27.70
2019-06-27T16:19:54.170Z,27.70
2019-06-27T16:22:22.937Z,27.60
2019-06-27T16:24:51.755Z,27.50
2019-06-27T16:27:20.654Z,27.40
2019-06-27T16:29:49.518Z,27.40
2019-06-27T16:32:18.453Z,27.40
2019-06-27T16:34:48.066Z,27.40
2019-06-27T16:37:17.005Z,27.30
2019-06-27T16:39:45.871Z,27.30
2019-06-27T16:42:14.641Z,27.20
2019-06-27T16:44:43.506Z,27.20
2019-06-27T16:47:12.386Z,27.10
2019-06-27T16:49:41.262Z,27.20
2019-06-27T16:52:10.181Z,27.20
2019-06-27T16:54:39.036Z,27.20
2019-06-27T16:57:07.793Z,27.20
2019-06-27T16:59:36.763Z,27.00
2019-06-27T17:02:07.165Z,26.90
2019-06-27T17:04:36.353Z,26.70
2019-06-27T17:07:05.252Z,26.60
2019-06-27T17:09:34.152Z,26.60
2019-06-27T17:12:07.869Z,26.50
2019-06-27T17:14:37.102Z,26.50
2019-06-27T17:17:06.105Z,26.40
2019-06-27T17:19:34.887Z,26.40
2019-06-27T17:22:03.901Z,26.30
2019-06-27T17:24:32.716Z,26.30
2019-06-27T17:27:01.587Z,26.30
2019-06-27T17:29:30.369Z,26.30
2019-06-27T17:31:59.162Z,26.20
2019-06-27T17:34:28.150Z,26.10
2019-06-27T17:36:58.248Z,25.90
2019-06-27T17:39:27.217Z,25.80
2019-06-27T17:41:56.137Z,25.70
2019-06-27T17:44:25.201Z,25.60
2019-06-27T17:46:57.695Z,25.60
2019-06-27T17:49:26.645Z,25.40
2019-06-27T17:51:55.642Z,25.30
2019-06-27T17:54:24.501Z,25.20
2019-06-27T17:56:53.318Z,25.10
2019-06-27T17:59:22.139Z,25.00
2019-06-27T18:01:50.981Z,24.80
2019-06-27T18:04:19.750Z,24.80
2019-06-27T18:06:48.719Z,24.70
2019-06-27T18:09:17.650Z,24.70
2019-06-27T18:11:46.573Z,24.60
2019-06-27T18:14:15.465Z,24.50
2019-06-27T18:16:44.400Z,24.50
2019-06-27T18:19:13.239Z,24.40
2019-06-27T18:21:42.050Z,24.20
2019-06-27T18:24:10.858Z,24.10
2019-06-27T18:26:39.657Z,24.00
2019-06-27T18:29:08.461Z,23.90
2019-06-27T18:31:37.253Z,23.80
2019-06-27T18:34:06.191Z,23.70
2019-06-27T18:36:35.117Z,23.60
2019-06-27T18:39:04.825Z,23.60
2019-06-27T18:41:33.642Z,23.60
2019-06-27T18:44:02.542Z,23.50
2019-06-27T18:46:31.468Z,23.50
2019-06-27T18:49:00.259Z,23.40
2019-06-27T18:51:29.111Z,23.30
2019-06-27T18:54:00.796Z,23.20
2019-06-27T18:56:28.714Z,23.00
2019-06-27T18:58:57.805Z,22.90
2019-06-27T19:01:27.077Z,22.80
2019-06-27T19:03:56.018Z,22.60
2019-06-27T19:06:24.809Z,22.60
2019-06-27T19:08:53.601Z,22.60
2019-06-27T19:11:22.405Z,22.40
2019-06-27T19:13:51.194Z,22.30
2019-06-27T19:16:19.982Z,22.20
2019-06-27T19:18:52.448Z,22.00
2019-06-27T19:21:46.686Z,22.00
2019-06-27T19:24:31.782Z,21.80
2019-06-27T19:27:00.598Z,21.70
2019-06-27T19:29:29.386Z,21.60
2019-06-27T19:31:58.416Z,21.50
2019-06-27T19:34:27.360Z,21.30
2019-06-27T19:36:56.923Z,21.20
2019-06-27T19:39:25.858Z,21.20
2019-06-27T19:41:57.040Z,21.10
2019-06-27T19:44:25.174Z,21.00
2019-06-27T19:46:54.026Z,20.90
2019-06-27T19:49:22.834Z,20.80
2019-06-27T19:51:51.617Z,20.70
2019-06-27T19:54:20.501Z,20.70
2019-06-27T19:56:49.298Z,20.60
2019-06-27T19:59:18.098Z,20.60
2019-06-27T20:01:46.970Z,20.50
2019-06-27T20:04:15.759Z,20.50
2019-06-27T20:06:44.596Z,20.50
2019-06-27T20:09:13.449Z,20.40
2019-06-27T20:11:42.644Z,20.30
2019-06-27T20:14:11.458Z,20.30
2019-06-27T20:16:40.238Z,20.20
2019-06-27T20:19:09.136Z,20.10
2019-06-27T20:21:37.923Z,20.00
2019-06-27T20:24:06.733Z,19.90
2019-06-27T20:26:35.616Z,19.70
2019-06-27T20:29:04.578Z,19.60
2019-06-27T20:31:33.357Z,19.40
2019-06-27T20:34:02.413Z,19.30
2019-06-27T20:36:31.193Z,19.20
2019-06-27T20:38:59.970Z,19.10
2019-06-27T20:41:29.509Z,19.00
2019-06-27T20:43:58.461Z,18.80
2019-06-27T20:46:27.290Z,18.70
2019-06-27T20:48:56.173Z,18.70
2019-06-27T20:51:24.977Z,18.70
2019-06-27T20:53:54.038Z,18.70
2019-06-27T20:56:22.905Z,18.70
2019-06-27T20:58:51.793Z,18.70
2019-06-27T21:01:20.590Z,18.80
2019-06-27T21:03:49.481Z,18.80
2019-06-27T21:06:18.265Z,18.80
2019-06-27T21:08:51.193Z,18.70
2019-06-27T21:11:17.760Z,18.70
2019-06-27T21:13:46.556Z,18.60
2019-06-27T21:16:15.439Z,18.60
2019-06-27T21:18:44.313Z,18.50
2019-06-27T21:21:13.183Z,18.40
2019-06-27T21:23:42.036Z,18.30
2019-06-27T21:26:10.841Z,18.20
2019-06-27T21:28:39.689Z,18.20
2019-06-27T21:31:08.566Z,18.10
2019-06-27T21:33:37.355Z,18.20
2019-06-27T21:36:06.286Z,18.10
2019-06-27T21:38:35.146Z,18.10
2019-06-27T21:41:04.037Z,18.10
2019-06-27T21:43:32.851Z,18.10
2019-06-27T21:46:01.709Z,18.10
2019-06-27T21:48:30.501Z,18.00
2019-06-27T21:50:59.319Z,18.00
2019-06-27T21:53:28.111Z,17.90
2019-06-27T21:55:56.953Z,17.80
2019-06-27T21:58:25.781Z,17.70
2019-06-27T22:00:54.805Z,17.60
2019-06-27T22:03:23.745Z,17.50
2019-06-27T22:05:52.715Z,17.30
2019-06-27T22:08:21.589Z,17.10
2019-06-27T22:10:50.857Z,17.00
2019-06-27T22:13:19.709Z,16.80
2019-06-27T22:15:48.502Z,16.70
2019-06-27T22:18:17.376Z,16.50
2019-06-27T22:20:46.285Z,16.30
2019-06-27T22:23:15.178Z,16.10
2019-06-27T22:25:44.089Z,16.00
2019-06-27T22:28:13.096Z,15.80
2019-06-27T22:30:41.992Z,15.70
2019-06-27T22:33:10.859Z,15.60
2019-06-27T22:35:39.649Z,15.40
2019-06-27T22:38:26.256Z,15.30
2019-06-27T22:41:13.161Z,15.10
2019-06-27T22:44:00.093Z,15.00
2019-06-27T22:46:47.022Z,14.90
2019-06-27T22:49:15.770Z,14.80
2019-06-27T22:51:58.797Z,14.60
2019-06-27T22:54:27.997Z,14.50
2019-06-27T22:56:56.797Z,14.40
2019-06-27T22:59:25.581Z,14.40
2019-06-27T23:01:54.538Z,14.30
2019-06-27T23:04:23.430Z,14.20
2019-06-27T23:06:52.304Z,14.20
2019-06-27T23:09:21.158Z,14.20
2019-06-27T23:11:49.985Z,14.10
2019-06-27T23:14:18.833Z,14.10
2019-06-27T23:16:47.693Z,14.00
2019-06-27T23:19:16.621Z,14.00
2019-06-27T23:21:45.394Z,14.00
2019-06-27T23:24:14.272Z,14.00
2019-06-27T23:26:43.069Z,13.90
2019-06-27T23:29:12.187Z,13.90
2019-06-27T23:31:41.045Z,13.80
2019-06-27T23:34:09.869Z,13.80
2019-06-27T23:36:38.750Z,13.70
2019-06-27T23:39:07.575Z,13.70
2019-06-27T23:41:36.461Z,13.60
2019-06-27T23:44:05.357Z,13.60
2019-06-27T23:46:44.469Z,13.50
2019-06-27T23:49:13.363Z,13.40
2019-06-27T23:51:42.227Z,13.40
2019-06-27T23:54:11.207Z,13.40
2019-06-27T23:56:40.082Z,13.30
2019-06-27T23:59:08.877Z,13.30
